sensor_id;sensor_type;location;lat;lon;timestamp;temperature;humidity
66088;DHT22;52872;52.994;6.940;2023-02-13T00:00:44;9.30;99.90
66088;DHT22;52872;52.994;6.940;2023-02-13T00:03:13;9.30;99.90
66088;DHT22;52872;52.994;6.940;2023-02-13T00:05:41;9.30;99.90
66088;DHT22;52872;52.994;6.940;2023-02-13T00:08:08;9.20;99.90
66088;DHT22;52872;52.994;6.940;2023-02-13T00:10:36;9.30;99.90
66088;DHT22;52872;52.994;6.940;2023-02-13T00:13:03;9.30;99.90
66088;DHT22;52872;52.994;6.940;2023-02-13T00:15:29;9.40;99.90
66088;DHT22;52872;52.994;6.940;2023-02-13T00:17:56;9.40;99.90
66088;DHT22;52872;52.994;6.940;2023-02-13T00:20:23;9.40;99.90
66088;DHT22;52872;52.994;6.940;2023-02-13T00:22:51;9.50;99.90
66088;DHT22;52872;52.994;6.940;2023-02-13T00:25:18;9.50;99.90
66088;DHT22;52872;52.994;6.940;2023-02-13T00:27:45;9.50;99.90
66088;DHT22;52872;52.994;6.940;2023-02-13T00:30:15;9.50;99.90
66088;DHT22;52872;52.994;6.940;2023-02-13T00:32:43;9.50;99.90
66088;DHT22;52872;52.994;6.940;2023-02-13T00:35:09;9.50;99.90
66088;DHT22;52872;52.994;6.940;2023-02-13T00:37:36;9.50;99.90
66088;DHT22;52872;52.994;6.940;2023-02-13T00:40:04;9.40;99.90
66088;DHT22;52872;52.994;6.940;2023-02-13T00:42:31;9.40;99.90
66088;DHT22;52872;52.994;6.940;2023-02-13T00:44:58;9.40;99.90
66088;DHT22;52872;52.994;6.940;2023-02-13T00:47:25;9.40;99.90
66088;DHT22;52872;52.994;6.940;2023-02-13T00:49:52;9.40;99.90
66088;DHT22;52872;52.994;6.940;2023-02-13T00:52:19;9.40;99.90
66088;DHT22;52872;52.994;6.940;2023-02-13T00:54:46;9.40;99.90
66088;DHT22;52872;52.994;6.940;2023-02-13T00:57:13;9.40;99.90
66088;DHT22;52872;52.994;6.940;2023-02-13T00:59:41;9.40;99.90
66088;DHT22;52872;52.994;6.940;2023-02-13T01:02:08;9.40;99.90
66088;DHT22;52872;52.994;6.940;2023-02-13T01:04:35;9.40;99.90
66088;DHT22;52872;52.994;6.940;2023-02-13T01:07:02;9.40;99.90
66088;DHT22;52872;52.994;6.940;2023-02-13T01:09:29;9.40;99.90
66088;DHT22;52872;52.994;6.940;2023-02-13T01:11:56;9.30;99.90
66088;DHT22;52872;52.994;6.940;2023-02-13T01:14:23;9.30;99.90
66088;DHT22;52872;52.994;6.940;2023-02-13T01:16:50;9.30;99.90
66088;DHT22;52872;52.994;6.940;2023-02-13T01:19:17;9.40;99.90
66088;DHT22;52872;52.994;6.940;2023-02-13T01:21:44;9.30;99.90
66088;DHT22;52872;52.994;6.940;2023-02-13T01:24:11;9.30;99.90
66088;DHT22;52872;52.994;6.940;2023-02-13T01:26:38;9.30;99.90
66088;DHT22;52872;52.994;6.940;2023-02-13T01:29:05;9.30;99.90
66088;DHT22;52872;52.994;6.940;2023-02-13T01:31:33;9.30;99.90
66088;DHT22;52872;52.994;6.940;2023-02-13T01:34:00;9.40;99.90
66088;DHT22;52872;52.994;6.940;2023-02-13T01:36:27;9.40;99.90
66088;DHT22;52872;52.994;6.940;2023-02-13T01:38:56;9.30;99.90
66088;DHT22;52872;52.994;6.940;2023-02-13T01:41:24;9.40;99.90
66088;DHT22;52872;52.994;6.940;2023-02-13T01:43:54;9.30;99.90
66088;DHT22;52872;52.994;6.940;2023-02-13T01:46:40;9.30;99.90
66088;DHT22;52872;52.994;6.940;2023-02-13T01:49:15;9.40;99.90
66088;DHT22;52872;52.994;6.940;2023-02-13T01:51:44;9.30;99.90
66088;DHT22;52872;52.994;6.940;2023-02-13T01:54:17;9.30;99.90
66088;DHT22;52872;52.994;6.940;2023-02-13T01:56:52;9.30;99.90
66088;DHT22;52872;52.994;6.940;2023-02-13T01:59:28;9.30;99.90
66088;DHT22;52872;52.994;6.940;2023-02-13T02:01:57;9.30;99.90
66088;DHT22;52872;52.994;6.940;2023-02-13T02:04:31;9.20;99.90
66088;DHT22;52872;52.994;6.940;2023-02-13T02:07:10;9.30;99.90
66088;DHT22;52872;52.994;6.940;2023-02-13T02:09:41;9.30;99.90
66088;DHT22;52872;52.994;6.940;2023-02-13T02:14:49;9.20;99.90
66088;DHT22;52872;52.994;6.940;2023-02-13T02:17:17;9.20;99.90
66088;DHT22;52872;52.994;6.940;2023-02-13T02:33:46;9.30;99.90
66088;DHT22;52872;52.994;6.940;2023-02-13T02:39:21;9.20;99.90
66088;DHT22;52872;52.994;6.940;2023-02-13T02:42:09;9.20;99.90
66088;DHT22;52872;52.994;6.940;2023-02-13T02:47:26;9.10;99.90
66088;DHT22;52872;52.994;6.940;2023-02-13T02:50:33;9.20;99.90
66088;DHT22;52872;52.994;6.940;2023-02-13T02:53:25;9.20;99.90
66088;DHT22;52872;52.994;6.940;2023-02-13T02:58:55;9.10;99.90
66088;DHT22;52872;52.994;6.940;2023-02-13T03:01:42;9.20;99.90
66088;DHT22;52872;52.994;6.940;2023-02-13T03:07:26;9.10;99.90
66088;DHT22;52872;52.994;6.940;2023-02-13T03:09:59;9.10;99.90
66088;DHT22;52872;52.994;6.940;2023-02-13T03:13:02;9.20;99.90
66088;DHT22;52872;52.994;6.940;2023-02-13T03:16:02;9.20;99.90
66088;DHT22;52872;52.994;6.940;2023-02-13T03:18:54;9.10;99.90
66088;DHT22;52872;52.994;6.940;2023-02-13T03:34:18;9.20;99.90
66088;DHT22;52872;52.994;6.940;2023-02-13T03:40:02;9.20;99.90
66088;DHT22;52872;52.994;6.940;2023-02-13T03:48:22;9.20;99.90
66088;DHT22;52872;52.994;6.940;2023-02-13T03:51:11;9.20;99.90
66088;DHT22;52872;52.994;6.940;2023-02-13T03:53:41;9.20;99.90
66088;DHT22;52872;52.994;6.940;2023-02-13T03:56:12;9.10;99.90
66088;DHT22;52872;52.994;6.940;2023-02-13T03:59:01;9.10;99.90
66088;DHT22;52872;52.994;6.940;2023-02-13T04:02:15;9.10;99.90
66088;DHT22;52872;52.994;6.940;2023-02-13T04:04:47;9.10;99.90
66088;DHT22;52872;52.994;6.940;2023-02-13T04:07:18;9.10;99.90
66088;DHT22;52872;52.994;6.940;2023-02-13T04:09:58;9.10;99.90
66088;DHT22;52872;52.994;6.940;2023-02-13T04:15:56;9.20;99.90
66088;DHT22;52872;52.994;6.940;2023-02-13T04:18:30;9.10;99.90
66088;DHT22;52872;52.994;6.940;2023-02-13T04:21:05;9.10;99.90
66088;DHT22;52872;52.994;6.940;2023-02-13T04:23:33;9.10;99.90
66088;DHT22;52872;52.994;6.940;2023-02-13T04:26:06;9.10;99.90
66088;DHT22;52872;52.994;6.940;2023-02-13T04:28:34;9.20;99.90
66088;DHT22;52872;52.994;6.940;2023-02-13T04:31:01;9.20;99.90
66088;DHT22;52872;52.994;6.940;2023-02-13T04:33:28;9.20;99.90
66088;DHT22;52872;52.994;6.940;2023-02-13T04:35:55;9.20;99.90
66088;DHT22;52872;52.994;6.940;2023-02-13T04:38:22;9.20;99.90
66088;DHT22;52872;52.994;6.940;2023-02-13T04:40:49;9.20;99.90
66088;DHT22;52872;52.994;6.940;2023-02-13T04:43:16;9.20;99.90
66088;DHT22;52872;52.994;6.940;2023-02-13T04:45:50;9.20;99.90
66088;DHT22;52872;52.994;6.940;2023-02-13T04:48:17;9.20;99.90
66088;DHT22;52872;52.994;6.940;2023-02-13T04:50:44;9.10;99.90
66088;DHT22;52872;52.994;6.940;2023-02-13T04:53:11;9.10;99.90
66088;DHT22;52872;52.994;6.940;2023-02-13T04:55:38;9.10;99.90
66088;DHT22;52872;52.994;6.940;2023-02-13T04:58:05;9.20;99.90
66088;DHT22;52872;52.994;6.940;2023-02-13T05:00:32;9.10;99.90
66088;DHT22;52872;52.994;6.940;2023-02-13T05:03:10;9.10;99.90
66088;DHT22;52872;52.994;6.940;2023-02-13T05:05:39;9.20;99.90
66088;DHT22;52872;52.994;6.940;2023-02-13T05:08:06;9.10;99.90
66088;DHT22;52872;52.994;6.940;2023-02-13T05:10:34;9.10;99.90
66088;DHT22;52872;52.994;6.940;2023-02-13T05:13:01;9.10;99.90
66088;DHT22;52872;52.994;6.940;2023-02-13T05:15:28;9.10;99.90
66088;DHT22;52872;52.994;6.940;2023-02-13T05:17:55;9.10;99.90
66088;DHT22;52872;52.994;6.940;2023-02-13T05:20:22;9.10;99.90
66088;DHT22;52872;52.994;6.940;2023-02-13T05:22:51;9.10;99.90
66088;DHT22;52872;52.994;6.940;2023-02-13T05:25:39;9.10;99.90
66088;DHT22;52872;52.994;6.940;2023-02-13T05:28:07;9.10;99.90
66088;DHT22;52872;52.994;6.940;2023-02-13T05:30:54;9.10;99.90
66088;DHT22;52872;52.994;6.940;2023-02-13T05:33:21;9.10;99.90
66088;DHT22;52872;52.994;6.940;2023-02-13T05:35:48;9.10;99.90
66088;DHT22;52872;52.994;6.940;2023-02-13T05:38:15;9.10;99.90
66088;DHT22;52872;52.994;6.940;2023-02-13T05:40:42;9.10;99.90
66088;DHT22;52872;52.994;6.940;2023-02-13T05:43:09;9.10;99.90
66088;DHT22;52872;52.994;6.940;2023-02-13T05:45:36;9.10;99.90
66088;DHT22;52872;52.994;6.940;2023-02-13T05:48:03;9.10;99.90
66088;DHT22;52872;52.994;6.940;2023-02-13T05:50:30;9.10;99.90
66088;DHT22;52872;52.994;6.940;2023-02-13T05:52:57;9.10;99.90
66088;DHT22;52872;52.994;6.940;2023-02-13T05:55:24;9.00;99.90
66088;DHT22;52872;52.994;6.940;2023-02-13T05:57:55;9.00;99.90
66088;DHT22;52872;52.994;6.940;2023-02-13T06:00:24;9.00;99.90
66088;DHT22;52872;52.994;6.940;2023-02-13T06:02:51;9.00;99.90
66088;DHT22;52872;52.994;6.940;2023-02-13T06:05:18;9.00;99.90
66088;DHT22;52872;52.994;6.940;2023-02-13T06:07:45;9.00;99.90
66088;DHT22;52872;52.994;6.940;2023-02-13T06:10:12;9.00;99.90
66088;DHT22;52872;52.994;6.940;2023-02-13T06:12:39;9.00;99.90
66088;DHT22;52872;52.994;6.940;2023-02-13T06:15:06;9.00;99.90
66088;DHT22;52872;52.994;6.940;2023-02-13T06:17:33;9.00;99.90
66088;DHT22;52872;52.994;6.940;2023-02-13T06:20:00;9.00;99.90
66088;DHT22;52872;52.994;6.940;2023-02-13T06:22:27;9.00;99.90
66088;DHT22;52872;52.994;6.940;2023-02-13T06:24:54;9.00;99.90
66088;DHT22;52872;52.994;6.940;2023-02-13T06:27:21;9.00;99.90
66088;DHT22;52872;52.994;6.940;2023-02-13T06:29:48;9.00;99.90
66088;DHT22;52872;52.994;6.940;2023-02-13T06:32:15;9.00;99.90
66088;DHT22;52872;52.994;6.940;2023-02-13T06:34:42;9.00;99.90
66088;DHT22;52872;52.994;6.940;2023-02-13T06:37:09;9.00;99.90
66088;DHT22;52872;52.994;6.940;2023-02-13T06:39:36;9.00;99.90
66088;DHT22;52872;52.994;6.940;2023-02-13T06:42:03;9.00;99.90
66088;DHT22;52872;52.994;6.940;2023-02-13T06:44:30;9.00;99.90
66088;DHT22;52872;52.994;6.940;2023-02-13T06:46:57;9.00;99.90
66088;DHT22;52872;52.994;6.940;2023-02-13T06:49:24;9.00;99.90
66088;DHT22;52872;52.994;6.940;2023-02-13T06:51:51;9.00;99.90
66088;DHT22;52872;52.994;6.940;2023-02-13T06:54:18;9.00;99.90
66088;DHT22;52872;52.994;6.940;2023-02-13T06:56:44;9.00;99.90
66088;DHT22;52872;52.994;6.940;2023-02-13T06:59:11;9.00;99.90
66088;DHT22;52872;52.994;6.940;2023-02-13T07:01:38;9.00;99.90
66088;DHT22;52872;52.994;6.940;2023-02-13T07:04:06;9.00;99.90
66088;DHT22;52872;52.994;6.940;2023-02-13T07:06:33;8.90;99.90
66088;DHT22;52872;52.994;6.940;2023-02-13T07:09:02;8.90;99.90
66088;DHT22;52872;52.994;6.940;2023-02-13T07:11:29;8.90;99.90
66088;DHT22;52872;52.994;6.940;2023-02-13T07:13:56;8.90;99.90
66088;DHT22;52872;52.994;6.940;2023-02-13T07:16:24;8.90;99.90
66088;DHT22;52872;52.994;6.940;2023-02-13T07:18:51;9.00;99.90
66088;DHT22;52872;52.994;6.940;2023-02-13T07:21:18;8.90;99.90
66088;DHT22;52872;52.994;6.940;2023-02-13T07:23:45;9.00;99.90
66088;DHT22;52872;52.994;6.940;2023-02-13T07:26:11;9.00;99.90
66088;DHT22;52872;52.994;6.940;2023-02-13T07:28:38;9.00;99.90
66088;DHT22;52872;52.994;6.940;2023-02-13T07:31:05;9.00;99.90
66088;DHT22;52872;52.994;6.940;2023-02-13T07:33:33;9.00;99.90
66088;DHT22;52872;52.994;6.940;2023-02-13T07:36:00;9.10;99.90
66088;DHT22;52872;52.994;6.940;2023-02-13T07:38:32;9.10;99.90
66088;DHT22;52872;52.994;6.940;2023-02-13T07:41:00;9.10;99.90
66088;DHT22;52872;52.994;6.940;2023-02-13T07:43:28;9.10;99.90
66088;DHT22;52872;52.994;6.940;2023-02-13T07:46:00;9.20;99.90
66088;DHT22;52872;52.994;6.940;2023-02-13T07:48:28;9.20;99.90
66088;DHT22;52872;52.994;6.940;2023-02-13T07:50:59;9.20;99.90
66088;DHT22;52872;52.994;6.940;2023-02-13T07:53:30;9.30;99.90
66088;DHT22;52872;52.994;6.940;2023-02-13T07:55:57;9.20;99.90
66088;DHT22;52872;52.994;6.940;2023-02-13T07:58:25;9.30;99.90
66088;DHT22;52872;52.994;6.940;2023-02-13T08:00:52;9.30;99.90
66088;DHT22;52872;52.994;6.940;2023-02-13T08:03:19;9.30;99.90
66088;DHT22;52872;52.994;6.940;2023-02-13T08:05:46;9.30;99.90
66088;DHT22;52872;52.994;6.940;2023-02-13T08:08:15;9.30;99.90
66088;DHT22;52872;52.994;6.940;2023-02-13T08:10:42;9.30;99.90
66088;DHT22;52872;52.994;6.940;2023-02-13T08:13:28;9.30;99.90
66088;DHT22;52872;52.994;6.940;2023-02-13T08:15:55;9.40;99.90
66088;DHT22;52872;52.994;6.940;2023-02-13T08:18:22;9.40;99.90
66088;DHT22;52872;52.994;6.940;2023-02-13T08:20:49;9.40;99.90
66088;DHT22;52872;52.994;6.940;2023-02-13T08:23:16;9.50;99.90
66088;DHT22;52872;52.994;6.940;2023-02-13T08:25:43;9.50;99.90
66088;DHT22;52872;52.994;6.940;2023-02-13T08:28:10;9.50;99.90
66088;DHT22;52872;52.994;6.940;2023-02-13T08:30:37;9.50;99.90
66088;DHT22;52872;52.994;6.940;2023-02-13T08:33:04;9.50;99.90
66088;DHT22;52872;52.994;6.940;2023-02-13T08:35:31;9.60;99.90
66088;DHT22;52872;52.994;6.940;2023-02-13T08:38:04;9.60;99.90
66088;DHT22;52872;52.994;6.940;2023-02-13T08:40:31;9.60;99.90
66088;DHT22;52872;52.994;6.940;2023-02-13T08:43:00;9.60;99.90
66088;DHT22;52872;52.994;6.940;2023-02-13T08:45:27;9.70;99.90
66088;DHT22;52872;52.994;6.940;2023-02-13T08:47:58;9.70;99.90
66088;DHT22;52872;52.994;6.940;2023-02-13T08:50:26;9.70;99.90
66088;DHT22;52872;52.994;6.940;2023-02-13T08:52:53;9.70;99.90
66088;DHT22;52872;52.994;6.940;2023-02-13T08:55:20;9.70;99.90
66088;DHT22;52872;52.994;6.940;2023-02-13T08:57:48;9.80;99.90
66088;DHT22;52872;52.994;6.940;2023-02-13T09:00:15;9.80;99.90
66088;DHT22;52872;52.994;6.940;2023-02-13T09:02:42;9.80;99.90
66088;DHT22;52872;52.994;6.940;2023-02-13T09:05:09;9.80;99.90
66088;DHT22;52872;52.994;6.940;2023-02-13T09:07:36;9.80;99.90
66088;DHT22;52872;52.994;6.940;2023-02-13T09:10:03;9.80;99.90
66088;DHT22;52872;52.994;6.940;2023-02-13T09:12:31;9.90;99.90
66088;DHT22;52872;52.994;6.940;2023-02-13T09:14:58;9.90;99.90
66088;DHT22;52872;52.994;6.940;2023-02-13T09:17:25;9.90;99.90
66088;DHT22;52872;52.994;6.940;2023-02-13T09:19:51;9.90;99.90
66088;DHT22;52872;52.994;6.940;2023-02-13T09:22:18;10.00;99.90
66088;DHT22;52872;52.994;6.940;2023-02-13T09:24:45;10.00;99.90
66088;DHT22;52872;52.994;6.940;2023-02-13T09:27:12;10.00;99.90
66088;DHT22;52872;52.994;6.940;2023-02-13T09:29:39;10.00;99.90
66088;DHT22;52872;52.994;6.940;2023-02-13T09:32:06;10.00;99.90
66088;DHT22;52872;52.994;6.940;2023-02-13T09:34:33;10.10;99.90
66088;DHT22;52872;52.994;6.940;2023-02-13T09:37:00;10.10;99.90
66088;DHT22;52872;52.994;6.940;2023-02-13T09:39:27;10.10;99.90
66088;DHT22;52872;52.994;6.940;2023-02-13T09:41:55;10.20;99.90
66088;DHT22;52872;52.994;6.940;2023-02-13T09:44:35;10.20;99.90
66088;DHT22;52872;52.994;6.940;2023-02-13T09:47:35;10.30;99.90
66088;DHT22;52872;52.994;6.940;2023-02-13T09:50:12;10.30;99.90
66088;DHT22;52872;52.994;6.940;2023-02-13T09:52:42;10.30;99.90
66088;DHT22;52872;52.994;6.940;2023-02-13T09:55:18;10.30;99.90
66088;DHT22;52872;52.994;6.940;2023-02-13T09:58:14;10.30;99.90
66088;DHT22;52872;52.994;6.940;2023-02-13T10:00:50;10.30;99.90
66088;DHT22;52872;52.994;6.940;2023-02-13T10:06:27;10.40;99.90
66088;DHT22;52872;52.994;6.940;2023-02-13T10:09:14;10.50;99.90
66088;DHT22;52872;52.994;6.940;2023-02-13T10:14:28;10.50;99.90
66088;DHT22;52872;52.994;6.940;2023-02-13T10:17:08;10.60;99.90
66088;DHT22;52872;52.994;6.940;2023-02-13T10:19:46;10.70;99.90
66088;DHT22;52872;52.994;6.940;2023-02-13T10:22:15;10.70;99.90
66088;DHT22;52872;52.994;6.940;2023-02-13T10:24:51;10.70;99.90
66088;DHT22;52872;52.994;6.940;2023-02-13T10:27:26;10.80;99.90
66088;DHT22;52872;52.994;6.940;2023-02-13T10:32:55;10.80;99.90
66088;DHT22;52872;52.994;6.940;2023-02-13T10:38:33;11.00;99.90
66088;DHT22;52872;52.994;6.940;2023-02-13T10:44:16;11.00;99.90
66088;DHT22;52872;52.994;6.940;2023-02-13T10:55:24;11.00;99.90
66088;DHT22;52872;52.994;6.940;2023-02-13T11:03:24;11.00;99.90
66088;DHT22;52872;52.994;6.940;2023-02-13T11:05:53;11.10;99.90
66088;DHT22;52872;52.994;6.940;2023-02-13T11:10:56;11.10;99.90
66088;DHT22;52872;52.994;6.940;2023-02-13T11:13:26;11.10;99.90
66088;DHT22;52872;52.994;6.940;2023-02-13T11:15:57;11.20;99.90
66088;DHT22;52872;52.994;6.940;2023-02-13T11:18:29;11.30;99.90
66088;DHT22;52872;52.994;6.940;2023-02-13T11:21:21;11.40;99.90
66088;DHT22;52872;52.994;6.940;2023-02-13T11:23:52;11.50;99.90
66088;DHT22;52872;52.994;6.940;2023-02-13T11:26:30;11.50;99.90
66088;DHT22;52872;52.994;6.940;2023-02-13T11:29:15;11.50;99.90
66088;DHT22;52872;52.994;6.940;2023-02-13T11:31:43;11.60;99.90
66088;DHT22;52872;52.994;6.940;2023-02-13T11:34:29;11.60;99.90
66088;DHT22;52872;52.994;6.940;2023-02-13T11:37:16;11.70;99.90
66088;DHT22;52872;52.994;6.940;2023-02-13T11:39:45;11.80;99.90
66088;DHT22;52872;52.994;6.940;2023-02-13T11:44:57;11.80;99.90
66088;DHT22;52872;52.994;6.940;2023-02-13T11:47:41;11.80;99.90
66088;DHT22;52872;52.994;6.940;2023-02-13T11:50:27;11.90;99.90
66088;DHT22;52872;52.994;6.940;2023-02-13T11:53:06;11.90;99.90
66088;DHT22;52872;52.994;6.940;2023-02-13T11:55:37;11.80;99.90
66088;DHT22;52872;52.994;6.940;2023-02-13T12:00:39;11.90;99.90
66088;DHT22;52872;52.994;6.940;2023-02-13T12:06:11;12.10;99.90
66088;DHT22;52872;52.994;6.940;2023-02-13T12:08:41;12.10;99.90
66088;DHT22;52872;52.994;6.940;2023-02-13T12:13:42;12.10;99.90
66088;DHT22;52872;52.994;6.940;2023-02-13T12:16:29;12.10;99.90
66088;DHT22;52872;52.994;6.940;2023-02-13T12:18:59;12.20;99.90
66088;DHT22;52872;52.994;6.940;2023-02-13T12:24:20;12.30;99.90
66088;DHT22;52872;52.994;6.940;2023-02-13T12:35:47;12.50;99.90
66088;DHT22;52872;52.994;6.940;2023-02-13T12:38:27;12.60;99.90
66088;DHT22;52872;52.994;6.940;2023-02-13T12:41:27;12.60;99.90
66088;DHT22;52872;52.994;6.940;2023-02-13T12:44:10;12.70;99.90
66088;DHT22;52872;52.994;6.940;2023-02-13T12:46:47;12.70;99.90
66088;DHT22;52872;52.994;6.940;2023-02-13T12:55:04;12.70;99.90
66088;DHT22;52872;52.994;6.940;2023-02-13T13:09:22;12.70;99.90
66088;DHT22;52872;52.994;6.940;2023-02-13T13:12:18;12.80;99.90
66088;DHT22;52872;52.994;6.940;2023-02-13T13:26:50;12.90;99.90
66088;DHT22;52872;52.994;6.940;2023-02-13T13:29:32;12.90;99.90
66088;DHT22;52872;52.994;6.940;2023-02-13T13:32:06;13.00;99.90
66088;DHT22;52872;52.994;6.940;2023-02-13T13:34:34;13.00;99.90
66088;DHT22;52872;52.994;6.940;2023-02-13T13:37:18;13.00;99.90
66088;DHT22;52872;52.994;6.940;2023-02-13T13:39:56;13.10;99.90
66088;DHT22;52872;52.994;6.940;2023-02-13T13:42:42;13.10;99.90
66088;DHT22;52872;52.994;6.940;2023-02-13T13:48:04;13.10;99.90
66088;DHT22;52872;52.994;6.940;2023-02-13T13:50:38;13.10;99.90
66088;DHT22;52872;52.994;6.940;2023-02-13T13:53:11;13.00;99.90
66088;DHT22;52872;52.994;6.940;2023-02-13T13:58:45;13.00;99.90
66088;DHT22;52872;52.994;6.940;2023-02-13T14:04:36;12.90;99.90
66088;DHT22;52872;52.994;6.940;2023-02-13T14:11:56;13.00;99.90
66088;DHT22;52872;52.994;6.940;2023-02-13T14:17:00;12.90;99.90
66088;DHT22;52872;52.994;6.940;2023-02-13T14:19:38;13.00;99.90
66088;DHT22;52872;52.994;6.940;2023-02-13T14:25:05;12.90;99.90
66088;DHT22;52872;52.994;6.940;2023-02-13T14:27:37;12.90;99.90
66088;DHT22;52872;52.994;6.940;2023-02-13T14:30:28;12.80;99.90
66088;DHT22;52872;52.994;6.940;2023-02-13T14:32:54;12.80;99.90
66088;DHT22;52872;52.994;6.940;2023-02-13T14:35:31;12.80;99.90
66088;DHT22;52872;52.994;6.940;2023-02-13T14:38:00;12.80;99.90
66088;DHT22;52872;52.994;6.940;2023-02-13T14:40:47;12.70;99.90
66088;DHT22;52872;52.994;6.940;2023-02-13T14:46:01;12.70;99.90
66088;DHT22;52872;52.994;6.940;2023-02-13T14:51:16;12.50;99.90
66088;DHT22;52872;52.994;6.940;2023-02-13T14:53:51;12.50;99.90
66088;DHT22;52872;52.994;6.940;2023-02-13T14:56:20;12.60;99.90
66088;DHT22;52872;52.994;6.940;2023-02-13T14:59:05;12.50;99.90
66088;DHT22;52872;52.994;6.940;2023-02-13T15:01:45;12.60;99.90
66088;DHT22;52872;52.994;6.940;2023-02-13T15:04:23;12.60;99.90
66088;DHT22;52872;52.994;6.940;2023-02-13T15:06:52;12.70;99.90
66088;DHT22;52872;52.994;6.940;2023-02-13T15:09:25;12.70;99.90
66088;DHT22;52872;52.994;6.940;2023-02-13T15:11:54;12.60;99.90
66088;DHT22;52872;52.994;6.940;2023-02-13T15:14:23;12.70;99.90
66088;DHT22;52872;52.994;6.940;2023-02-13T15:16:55;12.70;99.90
66088;DHT22;52872;52.994;6.940;2023-02-13T15:19:23;12.70;99.90
66088;DHT22;52872;52.994;6.940;2023-02-13T15:21:54;12.70;99.90
66088;DHT22;52872;52.994;6.940;2023-02-13T15:24:22;12.70;99.90
66088;DHT22;52872;52.994;6.940;2023-02-13T15:26:59;12.70;99.90
66088;DHT22;52872;52.994;6.940;2023-02-13T15:29:27;12.70;99.90
66088;DHT22;52872;52.994;6.940;2023-02-13T15:32:32;12.70;99.90
66088;DHT22;52872;52.994;6.940;2023-02-13T15:34:59;12.70;99.90
66088;DHT22;52872;52.994;6.940;2023-02-13T15:37:28;12.60;99.90
66088;DHT22;52872;52.994;6.940;2023-02-13T15:40:12;12.50;99.90
66088;DHT22;52872;52.994;6.940;2023-02-13T15:42:39;12.50;99.90
66088;DHT22;52872;52.994;6.940;2023-02-13T15:45:14;12.40;99.90
66088;DHT22;52872;52.994;6.940;2023-02-13T15:47:46;12.30;99.90
66088;DHT22;52872;52.994;6.940;2023-02-13T15:50:18;12.20;99.90
66088;DHT22;52872;52.994;6.940;2023-02-13T15:52:46;12.10;99.90
66088;DHT22;52872;52.994;6.940;2023-02-13T15:55:22;12.00;99.90
66088;DHT22;52872;52.994;6.940;2023-02-13T15:57:52;11.80;99.90
66088;DHT22;52872;52.994;6.940;2023-02-13T16:00:34;11.70;99.90
66088;DHT22;52872;52.994;6.940;2023-02-13T16:03:05;11.60;99.90
66088;DHT22;52872;52.994;6.940;2023-02-13T16:05:37;11.40;99.90
66088;DHT22;52872;52.994;6.940;2023-02-13T16:13:36;11.10;99.90
66088;DHT22;52872;52.994;6.940;2023-02-13T16:16:07;11.00;99.90
66088;DHT22;52872;52.994;6.940;2023-02-13T16:18:36;10.90;99.90
66088;DHT22;52872;52.994;6.940;2023-02-13T16:21:06;10.70;99.90
66088;DHT22;52872;52.994;6.940;2023-02-13T16:23:35;10.70;99.90
66088;DHT22;52872;52.994;6.940;2023-02-13T16:26:11;10.60;99.90
66088;DHT22;52872;52.994;6.940;2023-02-13T16:28:38;10.60;99.90
66088;DHT22;52872;52.994;6.940;2023-02-13T16:31:06;10.40;99.90
66088;DHT22;52872;52.994;6.940;2023-02-13T16:33:35;10.40;99.90
66088;DHT22;52872;52.994;6.940;2023-02-13T16:38:42;10.20;99.90
66088;DHT22;52872;52.994;6.940;2023-02-13T16:51:47;9.80;99.90
66088;DHT22;52872;52.994;6.940;2023-02-13T16:54:59;9.70;99.90
66088;DHT22;52872;52.994;6.940;2023-02-13T16:57:32;9.60;99.90
66088;DHT22;52872;52.994;6.940;2023-02-13T17:02:37;9.40;99.90
66088;DHT22;52872;52.994;6.940;2023-02-13T17:07:40;9.20;99.90
66088;DHT22;52872;52.994;6.940;2023-02-13T17:10:19;9.20;99.90
66088;DHT22;52872;52.994;6.940;2023-02-13T17:12:49;9.00;99.90
66088;DHT22;52872;52.994;6.940;2023-02-13T17:15:20;8.90;99.90
66088;DHT22;52872;52.994;6.940;2023-02-13T17:17:48;8.90;99.90
66088;DHT22;52872;52.994;6.940;2023-02-13T17:20:25;8.80;99.90
66088;DHT22;52872;52.994;6.940;2023-02-13T17:22:54;8.80;99.90
66088;DHT22;52872;52.994;6.940;2023-02-13T17:25:24;8.70;99.90
66088;DHT22;52872;52.994;6.940;2023-02-13T17:27:54;8.60;99.90
66088;DHT22;52872;52.994;6.940;2023-02-13T17:30:23;8.60;99.90
66088;DHT22;52872;52.994;6.940;2023-02-13T17:33:05;8.50;99.90
66088;DHT22;52872;52.994;6.940;2023-02-13T17:35:33;8.50;99.90
66088;DHT22;52872;52.994;6.940;2023-02-13T17:38:01;8.40;99.90
66088;DHT22;52872;52.994;6.940;2023-02-13T17:40:28;8.30;99.90
66088;DHT22;52872;52.994;6.940;2023-02-13T17:42:58;8.30;99.90
66088;DHT22;52872;52.994;6.940;2023-02-13T17:45:27;8.20;99.90
66088;DHT22;52872;52.994;6.940;2023-02-13T17:47:55;8.20;99.90
66088;DHT22;52872;52.994;6.940;2023-02-13T17:50:25;8.20;99.90
66088;DHT22;52872;52.994;6.940;2023-02-13T17:52:55;8.10;99.90
66088;DHT22;52872;52.994;6.940;2023-02-13T17:55:26;8.10;99.90
66088;DHT22;52872;52.994;6.940;2023-02-13T17:57:55;8.00;99.90
66088;DHT22;52872;52.994;6.940;2023-02-13T18:00:25;8.00;99.90
66088;DHT22;52872;52.994;6.940;2023-02-13T18:03:07;7.90;99.90
66088;DHT22;52872;52.994;6.940;2023-02-13T18:05:34;7.90;99.90
66088;DHT22;52872;52.994;6.940;2023-02-13T18:08:01;7.90;99.90
66088;DHT22;52872;52.994;6.940;2023-02-13T18:10:31;7.80;99.90
66088;DHT22;52872;52.994;6.940;2023-02-13T18:12:59;7.80;99.90
66088;DHT22;52872;52.994;6.940;2023-02-13T18:15:47;7.80;99.90
66088;DHT22;52872;52.994;6.940;2023-02-13T18:18:15;7.80;99.90
66088;DHT22;52872;52.994;6.940;2023-02-13T18:20:43;7.70;99.90
66088;DHT22;52872;52.994;6.940;2023-02-13T18:23:10;7.70;99.90
66088;DHT22;52872;52.994;6.940;2023-02-13T18:25:37;7.60;99.90
66088;DHT22;52872;52.994;6.940;2023-02-13T18:28:04;7.60;99.90
66088;DHT22;52872;52.994;6.940;2023-02-13T18:30:31;7.60;99.90
66088;DHT22;52872;52.994;6.940;2023-02-13T18:32:58;7.60;99.90
66088;DHT22;52872;52.994;6.940;2023-02-13T18:35:28;7.50;99.90
66088;DHT22;52872;52.994;6.940;2023-02-13T18:37:55;7.50;99.90
66088;DHT22;52872;52.994;6.940;2023-02-13T18:40:22;7.50;99.90
66088;DHT22;52872;52.994;6.940;2023-02-13T18:42:50;7.40;99.90
66088;DHT22;52872;52.994;6.940;2023-02-13T18:45:18;7.40;99.90
66088;DHT22;52872;52.994;6.940;2023-02-13T18:47:45;7.40;99.90
66088;DHT22;52872;52.994;6.940;2023-02-13T18:50:15;7.30;99.90
66088;DHT22;52872;52.994;6.940;2023-02-13T18:52:44;7.30;99.90
66088;DHT22;52872;52.994;6.940;2023-02-13T18:55:12;7.20;99.90
66088;DHT22;52872;52.994;6.940;2023-02-13T18:57:39;7.20;99.90
66088;DHT22;52872;52.994;6.940;2023-02-13T19:00:10;7.20;99.90
66088;DHT22;52872;52.994;6.940;2023-02-13T19:02:37;7.10;99.90
66088;DHT22;52872;52.994;6.940;2023-02-13T19:05:04;7.10;99.90
66088;DHT22;52872;52.994;6.940;2023-02-13T19:07:34;7.10;99.90
66088;DHT22;52872;52.994;6.940;2023-02-13T19:10:02;7.10;99.90
66088;DHT22;52872;52.994;6.940;2023-02-13T19:12:32;7.10;99.90